Time;durP1;ratioP1;P1;durP2;ratioP2;P2;SDS_P1;SDS_P2;PMS_P1;PMS_P2;Temp;Humidity;BMP_temperature;BMP_pressure;BME280_temperature;BME280_humidity;BME280_pressure;Samples;Min_cycle;Max_cycle;Signal;HPM_P1;HPM_P2
2022/03/12 00:02:17;;;;;;;27.42;15.13;;;;;;;-3.78;68.52;94173.94;5095498;28;20401;-43
2022/03/12 00:04:45;;;;;;;26.98;15.70;;;;;;;-3.92;69.17;94148.22;5094134;28;20056;-40
2022/03/12 00:07:11;;;;;;;23.63;13.80;;;;;;;-3.77;69.04;94166.63;5092585;28;20020;-40
2022/03/12 00:09:37;;;;;;;15.65;10.13;;;;;;;-3.58;67.68;94171.69;5093055;28;20090;-41
2022/03/12 00:12:03;;;;;;;16.05;9.10;;;;;;;-3.47;66.90;94169.38;5093270;28;20047;-40
2022/03/12 00:14:30;;;;;;;15.20;8.82;;;;;;;-3.41;66.94;94169.53;5083110;28;20035;-40
2022/03/12 00:16:55;;;;;;;11.30;7.50;;;;;;;-3.58;67.42;94171.69;5079746;28;20021;-40
2022/03/12 00:19:21;;;;;;;16.98;8.13;;;;;;;-3.62;67.62;94170.31;5082559;28;20031;-40
2022/03/12 00:21:49;;;;;;;14.30;7.57;;;;;;;-3.52;67.67;94171.88;5083941;28;20036;-40
2022/03/12 00:24:15;;;;;;;13.97;8.47;;;;;;;-3.66;68.26;94164.28;5081828;28;20021;-40
2022/03/12 00:26:46;;;;;;;12.32;7.32;;;;;;;-3.75;68.98;94161.53;5082822;28;20028;-40
2022/03/12 00:29:15;;;;;;;32.58;15.93;;;;;;;-3.72;69.73;94160.63;5082200;28;20043;-39
2022/03/12 00:31:42;;;;;;;32.30;16.90;;;;;;;-3.78;69.16;94160.47;5080666;28;20106;-40
2022/03/12 00:34:09;;;;;;;29.65;16.00;;;;;;;-3.68;68.52;94166.69;5081673;28;20032;-40
2022/03/12 00:36:34;;;;;;;25.13;15.40;;;;;;;-3.75;69.22;94165.00;5084168;28;20489;-40
2022/03/12 00:39:00;;;;;;;23.92;14.05;;;;;;;-3.67;68.83;94155.44;5088063;28;20024;-40
2022/03/12 00:41:29;;;;;;;17.02;10.90;;;;;;;-3.91;69.71;94133.56;5077202;28;20032;-40
2022/03/12 00:43:54;;;;;;;;;;;;;;;-3.88;69.81;94148.84;5078754;28;20019;-39
2022/03/12 00:46:20;;;;;;;21.25;10.60;;;;;;;-3.84;70.38;94151.44;5082536;28;19916;-41
2022/03/12 00:48:46;;;;;;;21.95;10.60;;;;;;;-3.92;70.94;94142.09;5080512;28;20031;-41
2022/03/12 00:51:11;;;;;;;14.60;8.77;;;;;;;-3.99;71.61;94145.03;5081211;28;20070;-40
2022/03/12 00:53:39;;;;;;;17.50;9.80;;;;;;;-4.08;71.09;94153.81;5076142;28;20482;-41
2022/03/12 00:56:05;;;;;;;13.30;8.00;;;;;;;-4.38;70.41;94118.66;5080044;28;20076;-42
2022/03/12 00:58:31;;;;;;;13.05;7.57;;;;;;;-4.16;69.68;94149.84;5080851;28;20077;-42
2022/03/12 01:00:56;;;;;;;11.75;7.07;;;;;;;-4.34;70.53;94144.31;5070801;28;20029;-41
2022/03/12 01:03:22;;;;;;;13.40;7.63;;;;;;;-4.38;70.65;94145.63;5076222;28;20016;-41
2022/03/12 01:05:50;;;;;;;9.20;5.25;;;;;;;-4.32;68.97;94151.94;5081737;28;20034;-41
2022/03/12 01:08:17;;;;;;;10.80;6.25;;;;;;;-4.48;68.89;94146.72;5091338;28;20031;-41
2022/03/12 01:10:43;;;;;;;11.02;6.00;;;;;;;-4.46;69.08;94147.03;5083233;28;20024;-41
2022/03/12 01:13:08;;;;;;;14.70;8.02;;;;;;;-4.69;70.13;94143.53;5071293;28;20399;-41
2022/03/12 01:15:34;;;;;;;14.07;7.63;;;;;;;-4.72;69.87;94147.09;5071114;28;20025;-40
2022/03/12 01:18:00;;;;;;;13.35;6.68;;;;;;;-4.83;69.19;94146.66;5071245;28;20103;-40
2022/03/12 01:20:26;;;;;;;11.82;6.63;;;;;;;-5.16;70.40;94145.41;5070835;28;20035;-39
2022/03/12 01:22:51;;;;;;;12.55;7.88;;;;;;;-5.42;70.34;94136.59;5081977;28;20024;-39
2022/03/12 01:25:17;;;;;;;16.17;8.00;;;;;;;-5.33;70.61;94148.66;5091257;28;20117;-39
2022/03/12 01:27:42;;;;;;;16.55;10.90;;;;;;;-5.37;71.01;94148.72;5091331;28;20032;-38
2022/03/12 01:30:09;;;;;;;20.70;11.45;;;;;;;-5.47;71.69;94149.81;5091338;28;20024;-39
2022/03/12 01:32:35;;;;;;;20.30;10.15;;;;;;;-5.69;71.97;94148.91;5091283;28;20028;-39
2022/03/12 01:35:00;;;;;;;21.75;11.77;;;;;;;-5.53;71.12;94143.47;5091292;28;20097;-39
2022/03/12 01:37:26;;;;;;;21.42;13.35;;;;;;;-5.39;69.88;94146.47;5090243;28;20474;-39
2022/03/12 01:39:51;;;;;;;16.58;10.80;;;;;;;-5.45;69.86;94150.13;5090354;28;20125;-39
2022/03/12 01:42:20;;;;;;;20.15;10.43;;;;;;;-5.37;69.63;94157.56;5090761;28;20031;-38
2022/03/12 01:44:46;;;;;;;17.30;9.57;;;;;;;-5.58;69.72;94160.88;5071145;28;20035;-38
2022/03/12 01:47:15;;;;;;;12.80;9.00;;;;;;;-5.73;70.05;94156.34;5091016;28;20650;-39
2022/03/12 01:49:41;;;;;;;17.98;10.07;;;;;;;-5.80;69.93;94151.16;5090449;28;20028;-39
2022/03/12 01:52:10;;;;;;;12.48;7.40;;;;;;;-5.93;70.18;94153.09;5091037;28;20028;-39
2022/03/12 01:54:38;;;;;;;9.13;5.65;;;;;;;-5.95;70.28;94164.28;5091009;28;20020;-39
2022/03/12 01:57:04;;;;;;;11.15;6.80;;;;;;;-6.47;71.35;94159.13;5051553;28;1130280;-40
2022/03/12 01:59:30;;;;;;;9.68;5.55;;;;;;;-6.63;71.71;94161.09;5091878;28;20101;-40
2022/03/12 02:01:57;;;;;;;8.32;5.60;;;;;;;-6.81;72.10;94163.44;5091746;28;20089;-40
2022/03/12 02:04:24;;;;;;;9.40;6.28;;;;;;;-6.86;72.97;94164.69;5090575;28;20527;-40
2022/03/12 02:06:50;;;;;;;11.70;6.72;;;;;;;-7.00;72.87;94160.44;5091428;28;20062;-40
2022/03/12 02:09:17;;;;;;;9.32;5.53;;;;;;;-7.05;72.61;94158.25;5091408;28;20031;-40
2022/03/12 02:11:49;;;;;;;15.07;6.65;;;;;;;-7.03;72.43;94163.97;5075014;28;20078;-39
2022/03/12 02:14:17;;;;;;;10.00;5.65;;;;;;;-7.02;72.75;94164.72;5071366;28;20013;-40
2022/03/12 02:16:50;;;;;;;12.00;7.10;;;;;;;-7.13;72.62;94151.56;5071342;28;20492;-39
2022/03/12 02:19:17;;;;;;;14.40;6.85;;;;;;;-6.86;72.63;94164.69;5071273;28;20125;-39
2022/03/12 02:21:56;;;;;;;10.40;6.28;;;;;;;-6.74;71.21;94165.97;5070061;28;20090;-39
2022/03/12 02:24:24;;;;;;;15.43;7.38;;;;;;;-6.71;70.94;94171.22;5070797;28;20026;-42
2022/03/12 02:26:50;;;;;;;10.80;6.32;;;;;;;-6.72;71.44;94163.59;5071146;28;20036;-40
2022/03/12 02:29:22;;;;;;;9.80;6.03;;;;;;;-6.88;71.44;94164.38;5052959;28;20020;-41
2022/03/12 02:31:50;;;;;;;9.32;5.75;;;;;;;-6.86;71.58;94170.06;5071092;28;20025;-41
2022/03/12 02:34:23;;;;;;;12.63;6.10;;;;;;;-6.76;71.57;94171.75;5070648;28;20025;-41
2022/03/12 02:36:52;;;;;;;11.07;6.60;;;;;;;-6.70;71.59;94172.00;5072825;28;20247;-42
2022/03/12 02:39:20;;;;;;;16.00;9.80;;;;;;;-6.46;72.68;94174.06;5091095;28;20028;-45
2022/03/12 02:41:46;;;;;;;17.85;9.82;;;;;;;-6.42;72.37;94179.34;5108041;28;20420;-39
2022/03/12 02:44:17;;;;;;;21.48;9.55;;;;;;;-6.31;71.28;94180.59;5111346;28;20023;-40
2022/03/12 02:47:15;;;;;;;18.73;9.57;;;;;;;-6.35;70.99;94174.56;5111422;28;20458;-40
2022/03/12 02:49:49;;;;;;;16.35;10.18;;;;;;;-6.26;70.34;94182.00;5110997;28;20035;-40
2022/03/12 02:52:16;;;;;;;16.58;9.77;;;;;;;-6.18;69.79;94186.78;5111345;28;20024;-39
2022/03/12 02:54:42;;;;;;;14.07;9.23;;;;;;;-6.45;69.79;94170.19;5111275;28;20382;-40
2022/03/12 02:57:09;;;;;;;18.25;9.35;;;;;;;-6.30;70.42;94184.78;5110801;28;20044;-40
2022/03/12 02:59:35;;;;;;;27.27;10.98;;;;;;;-6.32;70.16;94187.13;5110916;28;20098;-41
2022/03/12 03:02:02;;;;;;;43.08;16.23;;;;;;;-6.26;70.48;94188.13;5110909;28;20091;-40
2022/03/12 03:04:34;;;;;;;33.50;15.15;;;;;;;-6.21;69.71;94184.94;5089825;28;20020;-40
2022/03/12 03:07:00;;;;;;;34.45;15.25;;;;;;;-6.27;69.49;94192.00;5089765;28;20405;-40
2022/03/12 03:09:26;;;;;;;33.60;17.05;;;;;;;-6.20;69.54;94194.50;5090409;28;20028;-41
2022/03/12 03:11:52;;;;;;;34.90;15.73;;;;;;;-6.19;68.84;94192.56;5072624;28;20793;-41
2022/03/12 03:14:19;;;;;;;32.22;15.77;;;;;;;-6.25;69.93;94178.13;5070130;28;20025;-40
2022/03/12 03:16:46;;;;;;;27.67;13.20;;;;;;;-6.15;69.64;94184.41;5070295;28;20025;-41
2022/03/12 03:19:11;;;;;;;24.10;11.93;;;;;;;-6.30;69.77;94189.38;5070127;28;20089;-40
2022/03/12 03:21:38;;;;;;;30.23;12.02;;;;;;;-6.36;69.85;94186.47;5070070;28;20024;-40
2022/03/12 03:24:05;;;;;;;28.85;11.75;;;;;;;-6.55;70.25;94160.50;5070257;28;20028;-40
2022/03/12 03:26:33;;;;;;;23.85;10.23;;;;;;;-6.30;69.50;94198.22;5070276;28;20020;-41
2022/03/12 03:28:59;;;;;;;22.25;11.88;;;;;;;-6.27;70.15;94202.75;5070067;28;20039;-40
2022/03/12 03:31:25;;;;;;;18.25;11.13;;;;;;;-6.34;70.24;94202.16;5069937;28;20024;-41
2022/03/12 03:33:50;;;;;;;15.57;10.00;;;;;;;-6.36;69.34;94205.28;5078617;28;20020;-41
2022/03/12 03:36:15;;;;;;;23.30;11.23;;;;;;;-6.46;69.69;94200.19;5090063;28;20023;-41
2022/03/12 03:38:41;;;;;;;21.48;11.30;;;;;;;-6.42;69.85;94206.97;5090603;28;20028;-41
2022/03/12 03:41:06;;;;;;;28.88;14.65;;;;;;;-6.49;69.81;94206.38;5101784;28;20027;-41
2022/03/12 03:43:32;;;;;;;22.23;12.82;;;;;;;-6.36;69.76;94207.97;5110367;28;20072;-41
2022/03/12 03:45:57;;;;;;;31.65;14.98;;;;;;;-6.45;69.29;94207.03;5110313;28;20058;-40
2022/03/12 03:48:24;;;;;;;23.10;13.18;;;;;;;-6.51;70.17;94211.41;5109324;28;20020;-40
2022/03/12 03:50:51;;;;;;;25.25;12.15;;;;;;;-6.49;70.92;94206.38;5110615;28;20412;-41
2022/03/12 03:53:18;;;;;;;19.27;11.30;;;;;;;-6.63;70.30;94191.38;5110516;28;20080;-41
2022/03/12 03:55:44;;;;;;;9.52;6.13;;;;;;;-6.76;70.43;94209.34;5110059;28;20023;-41
2022/03/12 03:58:12;;;;;;;16.67;9.57;;;;;;;-6.63;70.43;94212.09;5110606;28;20084;-41
2022/03/12 04:00:38;;;;;;;19.98;10.02;;;;;;;-6.68;70.49;94201.88;5110191;28;20027;-40
2022/03/12 04:03:04;;;;;;;14.77;8.27;;;;;;;-6.55;70.03;94208.84;5101127;28;20084;-41
2022/03/12 04:05:36;;;;;;;22.15;12.27;;;;;;;-6.57;70.99;94213.88;5089747;28;20039;-40
2022/03/12 04:08:02;;;;;;;28.85;14.77;;;;;;;-6.77;71.19;94194.41;5090093;28;20024;-40
2022/03/12 04:10:29;;;;;;;50.03;20.67;;;;;;;-6.60;70.69;94214.69;5065653;28;20024;-40
2022/03/12 04:12:58;;;;;;;55.05;24.60;;;;;;;-6.69;71.23;94222.59;5069856;28;20032;-41
2022/03/12 04:15:23;;;;;;;59.33;26.33;;;;;;;-6.56;71.11;94223.41;5069805;28;20013;-41
2022/03/12 04:17:53;;;;;;;69.72;29.08;;;;;;;-6.63;71.12;94225.53;5069820;28;20028;-41
2022/03/12 04:20:19;;;;;;;62.22;24.08;;;;;;;-6.55;70.91;94227.63;5069814;28;20025;-40
2022/03/12 04:22:48;;;;;;;58.92;26.05;;;;;;;-6.43;70.83;94224.25;5069762;28;20045;-41
2022/03/12 04:25:14;;;;;;;53.63;23.73;;;;;;;-6.41;70.75;94221.91;5069631;28;20112;-40
2022/03/12 04:27:44;;;;;;;27.02;15.25;;;;;;;-6.56;70.70;94218.06;5070046;28;20043;-41
2022/03/12 04:30:11;;;;;;;34.78;17.02;;;;;;;-6.41;70.11;94232.63;5072284;28;20059;-41
2022/03/12 04:32:37;;;;;;;23.52;13.65;;;;;;;-6.62;69.84;94233.16;5073340;28;20146;-40
2022/03/12 04:35:05;;;;;;;19.45;10.70;;;;;;;-6.52;70.23;94237.50;5073327;28;20501;-42
2022/03/12 04:37:34;;;;;;;19.58;12.80;;;;;;;-6.78;70.24;94241.22;5073229;28;20016;-39
2022/03/12 04:40:04;;;;;;;14.20;9.13;;;;;;;-6.94;70.70;94235.84;5075054;28;20021;-40
2022/03/12 04:42:29;;;;;;;18.08;9.60;;;;;;;-6.84;70.35;94236.78;5093283;28;20063;-40
2022/03/12 04:44:55;;;;;;;16.95;11.32;;;;;;;-6.89;70.63;94238.03;5092973;28;20020;-40
2022/03/12 04:47:20;;;;;;;47.92;22.65;;;;;;;-6.91;71.17;94243.06;5093044;28;20027;-40
2022/03/12 04:49:46;;;;;;;30.55;15.73;;;;;;;-6.82;70.34;94251.28;5093233;28;20043;-39
2022/03/12 04:52:12;;;;;;;37.40;16.75;;;;;;;-7.06;71.17;94218.44;5093023;28;20412;-39
2022/03/12 04:54:37;;;;;;;31.33;16.00;;;;;;;-7.01;71.60;94244.81;5093156;28;20104;-39
2022/03/12 04:57:04;;;;;;;31.58;15.82;;;;;;;-6.85;71.54;94246.00;5092777;28;20566;-41
2022/03/12 04:59:29;;;;;;;39.88;19.73;;;;;;;-6.81;70.48;94236.69;5092812;28;20108;-41
2022/03/12 05:01:57;;;;;;;26.45;13.35;;;;;;;-6.76;70.78;94246.94;5092553;28;20107;-42
2022/03/12 05:04:22;;;;;;;24.30;13.60;;;;;;;-6.68;70.41;94244.81;5072632;28;20111;-41
2022/03/12 05:06:48;;;;;;;65.45;27.17;;;;;;;-6.62;70.08;94243.91;5072367;28;20028;-41
2022/03/12 05:09:13;;;;;;;181.63;70.00;;;;;;;-6.59;69.52;94237.72;5071513;28;20016;-41
2022/03/12 05:11:39;;;;;;;49.72;24.83;;;;;;;-6.53;69.92;94243.31;5088018;28;20402;-41
2022/03/12 05:14:06;;;;;;;43.70;19.92;;;;;;;-6.73;69.55;94246.09;5092734;28;20090;-41
2022/03/12 05:16:34;;;;;;;39.25;18.65;;;;;;;-6.77;69.92;94241.97;5092791;28;20028;-42
2022/03/12 05:19:01;;;;;;;35.80;18.77;;;;;;;-6.89;69.76;94248.00;5092699;28;20566;-41
2022/03/12 05:21:27;;;;;;;36.25;19.88;;;;;;;-6.92;70.64;94238.84;5074169;28;20028;-41
2022/03/12 05:23:52;;;;;;;41.08;20.33;;;;;;;-6.83;70.58;94247.09;5092466;28;20024;-43
2022/03/12 05:26:18;;;;;;;36.85;21.20;;;;;;;-6.69;69.94;94246.75;5092438;28;20413;-44
2022/03/12 05:28:43;;;;;;;75.05;34.60;;;;;;;-6.77;70.81;94239.28;5092275;28;20020;-44
2022/03/12 05:31:09;;;;;;;60.92;29.83;;;;;;;-6.79;70.67;94255.81;5091939;28;20532;-43
2022/03/12 05:33:35;;;;;;;71.03;36.13;;;;;;;-6.69;70.93;94254.06;5092383;28;20035;-45
2022/03/12 05:36:03;;;;;;;66.85;33.47;;;;;;;-6.79;70.96;94215.53;5091999;28;20440;-43
2022/03/12 05:38:34;;;;;;;89.30;42.00;;;;;;;-6.52;70.91;94260.97;5092032;28;20031;-42
2022/03/12 05:41:00;;;;;;;60.63;29.58;;;;;;;-6.40;69.42;94266.41;5101530;28;20024;-43
2022/03/12 05:43:26;;;;;;;51.08;25.95;;;;;;;-6.40;69.11;94274.47;5112456;28;20108;-42
2022/03/12 05:45:52;;;;;;;38.30;20.08;;;;;;;-6.29;69.06;94276.88;5112213;28;20031;-42
2022/03/12 05:48:19;;;;;;;38.95;21.45;;;;;;;-6.19;69.08;94276.63;5111208;28;20030;-42
2022/03/12 05:50:48;;;;;;;71.22;31.00;;;;;;;-6.05;70.19;94275.53;5111727;28;20564;-42
2022/03/12 05:53:17;;;;;;;44.60;22.42;;;;;;;-6.04;69.26;94281.66;5112480;28;20019;-42
2022/03/12 05:55:43;;;;;;;27.08;14.20;;;;;;;-5.88;68.18;94284.31;5111954;28;20527;-43
2022/03/12 05:58:11;;;;;;;43.50;21.38;;;;;;;-5.90;68.38;94292.81;5112070;28;20024;-42
2022/03/12 06:00:39;;;;;;;19.02;8.57;;;;;;;-5.99;67.63;94263.06;5112152;28;20015;-44
2022/03/12 06:03:04;;;;;;;16.63;7.80;;;;;;;-5.80;64.74;94274.84;5102071;28;20031;-43
2022/03/12 06:05:31;;;;;;;7.97;5.72;;;;;;;-5.54;63.50;94300.66;5091243;28;20021;-43
2022/03/12 06:07:59;;;;;;;10.07;5.80;;;;;;;-5.51;64.08;94294.44;5091412;28;20103;-44
2022/03/12 06:10:32;;;;;;;11.63;6.80;;;;;;;-5.34;63.89;94306.66;5091445;28;20515;-43
2022/03/12 06:12:58;;;;;;;11.60;5.32;;;;;;;-5.31;62.59;94300.44;5091709;28;20035;-43
2022/03/12 06:15:27;;;;;;;8.02;5.25;;;;;;;-5.42;62.37;94308.03;5091283;28;20016;-45
2022/03/12 06:17:53;;;;;;;16.80;9.50;;;;;;;-5.07;61.66;94303.63;5091304;28;20020;-41
2022/03/12 06:20:23;;;;;;;19.25;11.07;;;;;;;-4.86;60.21;94303.00;5091213;28;20028;-40
2022/03/12 06:22:53;;;;;;;28.85;13.35;;;;;;;-4.65;59.44;94307.75;5091220;28;20028;-40
2022/03/12 06:25:20;;;;;;;20.30;9.52;;;;;;;-4.35;59.66;94304.50;5091272;28;20093;-39
2022/03/12 06:27:50;;;;;;;8.65;5.68;;;;;;;-4.03;57.89;94317.00;5089945;28;20059;-40
2022/03/12 06:30:16;;;;;;;13.60;6.53;;;;;;;-3.78;57.94;94313.47;5091291;28;20024;-40
2022/03/12 06:32:43;;;;;;;9.00;5.82;;;;;;;-3.43;55.63;94323.84;5091325;28;20097;-40
2022/03/12 06:35:10;;;;;;;9.18;6.43;;;;;;;-3.02;54.18;94322.03;5091158;28;20024;-45
2022/03/12 06:37:36;;;;;;;10.95;7.50;;;;;;;-2.35;53.59;94294.03;5091228;28;20020;-45
2022/03/12 06:40:01;;;;;;;10.02;6.65;;;;;;;-1.94;52.65;94303.63;5093117;28;20485;-44
2022/03/12 06:42:32;;;;;;;12.95;7.20;;;;;;;-1.33;50.74;94316.19;5111150;28;20024;-46
2022/03/12 06:44:57;;;;;;;16.83;9.30;;;;;;;-0.62;49.41;94319.28;5111423;28;20023;-43
2022/03/12 06:47:29;;;;;;;13.98;8.18;;;;;;;0.09;48.41;94324.16;5111448;28;20408;-44
2022/03/12 06:49:56;;;;;;;13.48;8.75;;;;;;;0.11;45.76;94325.19;5111318;28;20024;-44
2022/03/12 06:52:23;;;;;;;16.27;10.20;;;;;;;-0.70;45.96;94334.34;5110961;28;20027;-42
2022/03/12 06:54:49;;;;;;;10.00;6.70;;;;;;;-1.39;48.01;94325.34;5111256;28;20556;-42
2022/03/12 06:57:15;;;;;;;8.35;6.40;;;;;;;-1.88;50.06;94341.66;5110771;28;20573;-43
2022/03/12 06:59:40;;;;;;;13.77;6.95;;;;;;;-1.86;50.33;94331.13;5111128;28;20024;-44
2022/03/12 07:02:06;;;;;;;10.13;5.57;;;;;;;-1.50;47.22;94333.94;5109881;28;20050;-46
2022/03/12 07:04:31;;;;;;;8.00;5.30;;;;;;;-0.64;47.01;94334.50;5089159;28;20089;-47
2022/03/12 07:06:56;;;;;;;8.63;5.57;;;;;;;0.13;44.64;94330.91;5090632;28;20107;-48
2022/03/12 07:09:22;;;;;;;9.88;5.95;;;;;;;1.08;42.07;94334.38;5090443;28;20102;-45
2022/03/12 07:11:47;;;;;;;12.93;6.50;;;;;;;0.52;41.36;94348.78;5073134;28;20039;-45
2022/03/12 07:14:13;;;;;;;9.05;6.20;;;;;;;0.35;42.42;94344.97;5070183;28;20028;-45
2022/03/12 07:16:38;;;;;;;7.10;5.28;;;;;;;0.30;43.86;94337.47;5070125;28;20036;-46
2022/03/12 07:19:04;;;;;;;6.93;4.70;;;;;;;0.60;41.71;94341.06;5070474;28;20031;-41
2022/03/12 07:21:29;;;;;;;6.95;5.05;;;;;;;0.89;41.75;94335.72;5070441;28;20017;-44
2022/03/12 07:23:56;;;;;;;11.27;6.15;;;;;;;0.22;42.39;94346.44;5089417;28;20394;-43
2022/03/12 07:26:22;;;;;;;21.30;11.70;;;;;;;1.06;41.41;94349.66;5090462;28;20016;-44
2022/03/12 07:28:48;;;;;;;16.40;10.02;;;;;;;1.59;41.98;94341.44;5090251;28;20024;-45
2022/03/12 07:31:17;;;;;;;11.30;7.28;;;;;;;1.34;39.96;94343.50;5090237;28;20504;-46
2022/03/12 07:33:44;;;;;;;11.43;7.90;;;;;;;1.10;40.81;94342.81;5090275;28;20035;-43
2022/03/12 07:36:11;;;;;;;9.70;6.55;;;;;;;1.52;39.24;94343.31;5090211;28;20028;-44
2022/03/12 07:38:36;;;;;;;6.50;5.40;;;;;;;1.49;39.12;94346.25;5090334;28;20046;-42
2022/03/12 07:41:02;;;;;;;7.57;5.72;;;;;;;1.59;39.04;94349.59;5091595;28;20557;-50
2022/03/12 07:43:27;;;;;;;6.40;4.57;;;;;;;1.34;36.43;94343.50;5088304;28;20516;-44
2022/03/12 07:45:53;;;;;;;10.68;7.53;;;;;;;2.25;40.35;94348.69;5087676;28;20056;-44
2022/03/12 07:48:18;;;;;;;10.82;8.02;;;;;;;3.71;35.10;94344.50;5087738;28;20081;-43
2022/03/12 07:50:44;;;;;;;10.13;7.30;;;;;;;5.02;34.16;94356.13;5087987;28;20060;-45
2022/03/12 07:53:12;;;;;;;12.10;9.23;;;;;;;6.25;31.41;94349.69;5087587;28;20032;-42
2022/03/12 07:55:38;;;;;;;12.82;7.72;;;;;;;5.83;28.67;94358.84;5069980;28;20048;-43
2022/03/12 07:58:04;;;;;;;10.15;5.47;;;;;;;4.56;31.87;94365.31;5088050;28;20040;-44
2022/03/12 08:00:31;;;;;;;8.95;6.72;;;;;;;4.81;33.10;94363.00;5087814;28;20093;-43
2022/03/12 08:02:57;;;;;;;12.77;9.63;;;;;;;4.27;31.13;94346.47;5081068;28;20081;-43
2022/03/12 08:05:25;;;;;;;8.50;6.25;;;;;;;4.63;32.61;94366.09;5079390;28;20064;-43
2022/03/12 08:07:56;;;;;;;7.30;4.93;;;;;;;5.01;30.67;94377.25;5091072;28;20032;-44
2022/03/12 08:10:23;;;;;;;5.45;4.38;;;;;;;3.92;31.22;94367.06;5085604;28;20082;-44
2022/03/12 08:12:50;;;;;;;7.80;5.22;;;;;;;3.49;33.06;94379.78;5070382;28;20089;-45
2022/03/12 08:15:16;;;;;;;6.32;4.47;;;;;;;3.31;33.87;94375.41;5070712;28;20102;-42
2022/03/12 08:17:43;;;;;;;6.18;4.65;;;;;;;2.81;32.80;94376.75;5069390;28;20040;-42
2022/03/12 08:20:09;;;;;;;6.60;4.32;;;;;;;1.94;34.60;94388.56;5089490;28;20039;-45
2022/03/12 08:22:40;;;;;;;7.15;4.85;;;;;;;1.11;36.00;94373.47;5090932;28;20114;-42
2022/03/12 08:25:07;;;;;;;8.23;5.95;;;;;;;0.51;37.54;94390.03;5091114;28;20523;-42
2022/03/12 08:27:35;;;;;;;6.55;4.38;;;;;;;0.27;38.14;94386.50;5090918;28;20035;-42
2022/03/12 08:30:01;;;;;;;6.88;4.45;;;;;;;-0.23;38.12;94390.75;5090485;28;20678;-42
2022/03/12 08:32:27;;;;;;;7.22;4.60;;;;;;;-0.61;39.44;94391.31;5090468;28;20419;-44
2022/03/12 08:34:53;;;;;;;7.22;4.63;;;;;;;-0.86;41.37;94394.31;5090342;28;20024;-43
2022/03/12 08:37:18;;;;;;;7.43;4.53;;;;;;;-1.09;41.47;94392.19;5090525;28;20060;-42
2022/03/12 08:39:44;;;;;;;10.25;4.53;;;;;;;-1.05;41.06;94403.66;5089917;28;20036;-41
2022/03/12 08:42:09;;;;;;;6.25;3.58;;;;;;;-1.41;40.28;94398.19;5089919;28;20119;-42
2022/03/12 08:44:37;;;;;;;7.15;4.50;;;;;;;-0.97;40.68;94392.06;5089910;28;20035;-41
2022/03/12 08:47:04;;;;;;;5.82;3.72;;;;;;;0.16;38.84;94395.16;5090033;28;20119;-42
2022/03/12 08:49:29;;;;;;;6.70;3.67;;;;;;;0.32;35.64;94386.66;5090065;28;20031;-42
2022/03/12 08:51:54;;;;;;;29.77;17.55;;;;;;;0.82;36.54;94379.56;5090152;28;20050;-42
2022/03/12 08:54:20;;;;;;;5.05;3.50;;;;;;;2.10;32.69;94366.31;5080555;28;20515;-43
2022/03/12 08:56:46;;;;;;;4.80;3.55;;;;;;;3.09;34.07;94386.03;5077511;28;20448;-45
2022/03/12 08:59:12;;;;;;;5.18;4.30;;;;;;;4.88;31.04;94378.94;5074958;28;20034;-43
2022/03/12 09:01:38;;;;;;;9.00;5.85;;;;;;;5.97;30.28;94369.63;5079092;28;20036;-46
2022/03/12 09:04:03;;;;;;;14.73;8.40;;;;;;;5.79;28.71;94372.06;5087952;28;20028;-41
2022/03/12 09:06:31;;;;;;;8.48;4.80;;;;;;;7.15;27.53;94362.75;5089533;28;20123;-42
2022/03/12 09:08:58;;;;;;;5.03;4.20;;;;;;;8.05;27.56;94373.59;5089404;28;20505;-43
2022/03/12 09:11:23;;;;;;;12.40;7.75;;;;;;;8.28;26.02;94376.94;5075729;28;20115;-44
2022/03/12 09:13:50;;;;;;;6.40;3.95;;;;;;;8.72;24.71;94376.59;5068780;28;20120;-45
2022/03/12 09:16:16;;;;;;;5.90;4.85;;;;;;;9.02;26.38;94376.56;5086301;28;20043;-43
2022/03/12 09:18:44;;;;;;;11.13;7.07;;;;;;;9.33;24.66;94389.00;5089956;28;20095;-44
2022/03/12 09:21:10;;;;;;;6.65;5.22;;;;;;;8.72;26.22;94389.63;5089846;28;20028;-46
2022/03/12 09:23:36;;;;;;;9.43;6.10;;;;;;;9.09;27.28;94400.78;5089504;28;20030;-42
2022/03/12 09:26:01;;;;;;;6.93;4.93;;;;;;;9.36;27.53;94398.97;5089111;28;20499;-44
2022/03/12 09:28:27;;;;;;;8.50;5.63;;;;;;;9.34;27.82;94407.03;5089281;28;20035;-41
2022/03/12 09:30:53;;;;;;;5.32;4.50;;;;;;;9.47;26.33;94410.66;5089009;28;20028;-45
2022/03/12 09:33:21;;;;;;;5.47;4.53;;;;;;;10.13;25.82;94375.25;5089053;28;20093;-44
2022/03/12 09:35:47;;;;;;;5.97;4.72;;;;;;;9.12;25.84;94394.97;5088931;28;20081;-43
2022/03/12 09:38:14;;;;;;;6.60;4.70;;;;;;;8.92;25.08;94394.69;5089423;28;20035;-42
2022/03/12 09:40:40;;;;;;;10.25;5.88;;;;;;;9.35;26.87;94384.47;5088604;28;20039;-42
2022/03/12 09:43:06;;;;;;;12.52;9.77;;;;;;;10.16;26.12;94412.81;5088950;28;20028;-42
2022/03/12 09:45:31;;;;;;;4.95;4.45;;;;;;;9.79;24.72;94408.75;5089266;28;20036;-40
2022/03/12 09:47:57;;;;;;;6.38;5.13;;;;;;;8.43;25.91;94406.84;5088682;28;20040;-41
2022/03/12 09:50:23;;;;;;;6.60;5.78;;;;;;;8.17;26.60;94407.25;5088673;28;20032;-41
2022/03/12 09:52:48;;;;;;;7.32;5.32;;;;;;;8.37;27.96;94404.91;5088443;28;20156;-41
2022/03/12 09:55:15;;;;;;;7.55;4.85;;;;;;;8.96;25.69;94414.44;5088720;28;20099;-41
2022/03/12 09:57:41;;;;;;;6.53;5.13;;;;;;;8.17;27.24;94412.75;5088368;28;20105;-41
2022/03/12 10:00:08;;;;;;;7.50;5.60;;;;;;;6.59;27.89;94409.53;5087460;28;20027;-43
2022/03/12 10:02:33;;;;;;;14.40;8.77;;;;;;;6.02;30.27;94410.00;5072056;28;20409;-42
2022/03/12 10:04:59;;;;;;;10.68;6.57;;;;;;;7.02;29.23;94418.22;5086317;28;20039;-41
2022/03/12 10:07:25;;;;;;;7.65;5.70;;;;;;;7.77;28.12;94414.25;5089001;28;20053;-42
2022/03/12 10:09:50;;;;;;;7.75;6.18;;;;;;;7.90;25.98;94405.44;5089710;28;20489;-42
2022/03/12 10:12:16;;;;;;;5.53;4.13;;;;;;;7.22;26.32;94406.94;5086689;28;20500;-41
2022/03/12 10:14:41;;;;;;;4.45;3.95;;;;;;;6.74;26.39;94420.25;5078273;28;20039;-39
2022/03/12 10:17:07;;;;;;;6.03;4.03;;;;;;;5.70;26.89;94411.38;5072787;28;20024;-40
2022/03/12 10:19:37;;;;;;;4.90;4.10;;;;;;;5.35;29.04;94413.75;5077303;28;20024;-41
2022/03/12 10:22:04;;;;;;;5.15;4.28;;;;;;;5.94;28.10;94414.47;5074539;28;20024;-40
2022/03/12 10:24:30;;;;;;;6.50;4.03;;;;;;;6.28;28.17;94406.31;5077565;28;20038;-41
2022/03/12 10:26:56;;;;;;;4.22;3.72;;;;;;;4.94;26.89;94413.28;5077220;28;20069;-40
2022/03/12 10:29:22;;;;;;;3.80;3.40;;;;;;;5.14;26.98;94412.41;5085077;28;20033;-40
2022/03/12 10:31:48;;;;;;;10.70;6.15;;;;;;;4.44;26.54;94407.50;5090302;28;20063;-41
2022/03/12 10:34:16;;;;;;;6.60;4.47;;;;;;;3.72;29.41;94408.84;5090021;28;20394;-42
2022/03/12 10:36:41;;;;;;;7.72;4.63;;;;;;;3.54;29.60;94400.94;5089051;28;20118;-43
2022/03/12 10:39:09;;;;;;;11.00;6.85;;;;;;;3.57;32.75;94400.72;5079375;28;20099;-44
2022/03/12 10:41:37;;;;;;;6.20;4.22;;;;;;;3.01;31.85;94404.06;5089834;28;20042;-43
2022/03/12 10:44:04;;;;;;;6.30;4.78;;;;;;;2.64;31.83;94395.59;5090103;28;20424;-44
2022/03/12 10:46:30;;;;;;;3.58;3.10;;;;;;;1.78;32.30;94391.75;5089772;28;20032;-42
2022/03/12 10:48:58;;;;;;;4.47;3.25;;;;;;;1.77;31.55;94393.75;5090043;28;20027;-42
2022/03/12 10:51:28;;;;;;;7.22;3.88;;;;;;;1.52;32.47;94391.56;5089972;28;20413;-42
2022/03/12 10:54:08;;;;;;;8.10;3.85;;;;;;;1.79;34.90;94390.56;5089589;28;20027;-41
2022/03/12 10:56:42;;;;;;;6.78;4.43;;;;;;;1.96;34.26;94397.78;5089679;28;20051;-41
2022/03/12 10:59:13;;;;;;;9.30;6.40;;;;;;;2.11;35.91;94384.16;5089912;28;20028;-46
2022/03/12 11:01:45;;;;;;;6.32;5.18;;;;;;;1.53;34.68;94384.91;5089669;28;20031;-48
2022/03/12 11:04:18;;;;;;;5.15;4.15;;;;;;;0.89;36.15;94379.22;5075752;28;20482;-46
2022/03/12 11:06:44;;;;;;;13.43;7.80;;;;;;;1.03;38.20;94378.53;5086575;28;20059;-46
2022/03/12 11:09:15;;;;;;;11.20;6.80;;;;;;;0.79;38.07;94380.50;5074968;28;20111;-48
2022/03/12 11:11:43;;;;;;;5.18;4.13;;;;;;;0.63;37.79;94386.31;5078126;28;20494;-45
2022/03/12 11:14:17;;;;;;;9.75;4.10;;;;;;;0.71;38.63;94380.06;5079513;28;20454;-41
2022/03/12 11:16:49;;;;;;;6.22;4.05;;;;;;;0.80;38.62;94375.81;5073106;28;20500;-43
2022/03/12 11:19:17;;;;;;;5.18;3.60;;;;;;;0.91;36.82;94376.03;5089165;28;20028;-42
2022/03/12 11:21:53;;;;;;;8.05;5.53;;;;;;;0.86;36.21;94372.00;5089367;28;20031;-42
2022/03/12 11:24:24;;;;;;;5.88;3.92;;;;;;;0.76;37.51;94367.81;5089520;28;20028;-41
2022/03/12 11:26:52;;;;;;;7.50;4.35;;;;;;;0.85;37.20;94361.56;5089350;28;20036;-43
2022/03/12 11:29:22;;;;;;;4.82;3.90;;;;;;;1.00;37.39;94379.44;5089409;28;20036;-42